Time;durP1;ratioP1;P1;durP2;ratioP2;P2;SDS_P1;SDS_P2;PMS_P1;PMS_P2;Temp;Humidity;BMP_temperature;BMP_pressure;BME280_temperature;BME280_humidity;BME280_pressure;Samples;Min_cycle;Max_cycle;Signal;HPM_P1;HPM_P2
2022/01/09 00:00:16;;;;;;;5.18;4.78;;;5.60;99.90;;;;;;5050021;28;20037;-72
2022/01/09 00:02:42;;;;;;;5.30;4.88;;;5.50;99.90;;;;;;5039598;28;20033;-72
2022/01/09 00:05:09;;;;;;;6.05;5.55;;;5.50;99.90;;;;;;5033483;28;20049;-72
2022/01/09 00:07:36;;;;;;;5.95;5.55;;;5.50;99.90;;;;;;5051681;28;20116;-72
2022/01/09 00:10:03;;;;;;;5.88;5.47;;;5.50;99.90;;;;;;5051465;28;20467;-72
2022/01/09 00:12:29;;;;;;;6.10;5.60;;;5.50;99.90;;;;;;5051163;28;20049;-72
2022/01/09 00:14:54;;;;;;;6.03;5.53;;;5.50;99.90;;;;;;5031924;28;20041;-72
2022/01/09 00:17:20;;;;;;;6.05;5.55;;;5.50;99.90;;;;;;5031036;28;20442;-72
2022/01/09 00:19:45;;;;;;;5.68;5.28;;;5.50;99.90;;;;;;5051407;28;20091;-72
2022/01/09 00:22:13;;;;;;;5.85;5.45;;;5.50;99.90;;;;;;5032222;28;20040;-72
2022/01/09 00:24:39;;;;;;;5.60;5.20;;;5.50;99.90;;;;;;5033211;28;20039;-72
2022/01/09 00:27:04;;;;;;;5.93;5.43;;;5.50;99.90;;;;;;5050680;28;20044;-72
2022/01/09 00:29:30;;;;;;;5.97;5.47;;;5.50;99.90;;;;;;5051398;28;20670;-72
2022/01/09 00:31:56;;;;;;;5.95;5.55;;;5.50;99.90;;;;;;5050740;28;20067;-72
2022/01/09 00:34:21;;;;;;;6.45;5.90;;;5.50;99.90;;;;;;5033015;28;20143;-72
2022/01/09 00:36:47;;;;;;;5.90;5.50;;;5.40;99.90;;;;;;5048427;28;20553;-72
2022/01/09 00:39:13;;;;;;;6.22;5.80;;;5.40;99.90;;;;;;5052462;28;20744;-72
2022/01/09 00:41:39;;;;;;;6.13;5.72;;;5.40;99.90;;;;;;5034531;28;20053;-72
2022/01/09 00:44:05;;;;;;;7.15;6.65;;;5.40;99.90;;;;;;5032213;28;20425;-73
2022/01/09 00:46:33;;;;;;;7.35;6.70;;;5.40;99.90;;;;;;5032504;28;20124;-72
2022/01/09 00:49:02;;;;;;;7.10;6.60;;;5.20;99.90;;;;;;5046372;28;20115;-72
2022/01/09 00:51:27;;;;;;;8.15;7.55;;;5.20;99.90;;;;;;5027604;28;20043;-72
2022/01/09 00:53:53;;;;;;;7.40;6.85;;;5.20;99.90;;;;;;5033402;28;21653;-72
2022/01/09 00:56:19;;;;;;;7.40;6.80;;;5.20;99.90;;;;;;5033623;28;20056;-72
2022/01/09 00:58:44;;;;;;;7.35;6.75;;;5.20;99.90;;;;;;5034083;28;20495;-72
2022/01/09 01:01:10;;;;;;;8.25;7.55;;;5.10;99.90;;;;;;5035089;28;20370;-72
2022/01/09 01:03:35;;;;;;;7.88;7.18;;;5.10;99.90;;;;;;5032178;28;20055;-72
2022/01/09 01:06:01;;;;;;;7.90;7.30;;;5.20;99.90;;;;;;5033612;28;20099;-72
2022/01/09 01:08:26;;;;;;;8.82;8.07;;;5.20;99.90;;;;;;5030918;28;20041;-72
2022/01/09 01:10:52;;;;;;;7.43;6.85;;;5.10;99.90;;;;;;5050582;28;20044;-72
2022/01/09 01:13:18;;;;;;;8.35;7.60;;;5.10;99.90;;;;;;5048754;28;20083;-72
2022/01/09 01:15:43;;;;;;;8.90;8.10;;;5.10;99.90;;;;;;5032150;28;20064;-72
2022/01/09 01:18:09;;;;;;;9.90;9.10;;;5.00;99.90;;;;;;5032428;28;20041;-73
2022/01/09 01:20:35;;;;;;;8.40;7.78;;;5.00;99.90;;;;;;5032749;28;20071;-72
2022/01/09 01:23:00;;;;;;;9.48;8.68;;;5.00;99.90;;;;;;5032689;28;20045;-72
2022/01/09 01:25:26;;;;;;;8.88;8.25;;;5.00;99.90;;;;;;5007969;28;20041;-72
2022/01/09 01:27:52;;;;;;;9.43;8.65;;;5.00;99.90;;;;;;5033014;28;20041;-72
2022/01/09 01:30:18;;;;;;;10.15;9.25;;;5.00;99.90;;;;;;5039473;28;20037;-72
2022/01/09 01:32:44;;;;;;;11.65;10.75;;;5.00;99.90;;;;;;5042259;28;20041;-72
2022/01/09 01:35:12;;;;;;;11.55;10.65;;;4.90;99.90;;;;;;5017622;28;20048;-72
2022/01/09 01:37:41;;;;;;;11.50;10.55;;;4.90;99.90;;;;;;5027649;28;20039;-72
2022/01/09 01:40:25;;;;;;;11.10;10.18;;;4.90;99.90;;;;;;5029171;28;20106;-72
2022/01/09 01:42:51;;;;;;;11.10;10.20;;;4.90;99.90;;;;;;5035726;28;20047;-72
2022/01/09 01:45:17;;;;;;;11.10;10.20;;;5.00;99.90;;;;;;5036210;28;20041;-72
2022/01/09 01:47:43;;;;;;;12.63;11.63;;;5.00;99.90;;;;;;5036118;28;20068;-72
2022/01/09 01:50:12;;;;;;;11.63;10.73;;;5.00;99.90;;;;;;5019995;28;20045;-72
2022/01/09 01:52:42;;;;;;;11.00;10.15;;;5.00;99.90;;;;;;5055666;28;20029;-72
2022/01/09 01:55:10;;;;;;;13.18;12.07;;;5.00;99.90;;;;;;5019172;28;20048;-72
2022/01/09 01:57:38;;;;;;;13.32;12.13;;;4.90;99.90;;;;;;5045084;28;20093;-72
2022/01/09 02:00:07;;;;;;;12.60;11.50;;;4.90;99.90;;;;;;5042508;28;20619;-72
2022/01/09 02:02:32;;;;;;;13.43;12.20;;;4.90;99.90;;;;;;5066789;28;20072;-72
2022/01/09 02:04:58;;;;;;;13.80;12.70;;;4.90;99.90;;;;;;5053092;28;20080;-72
2022/01/09 02:07:25;;;;;;;15.40;14.00;;;4.90;99.90;;;;;;5036227;28;20147;-72
2022/01/09 02:09:50;;;;;;;12.75;11.68;;;4.80;99.90;;;;;;5035646;28;20036;-72
2022/01/09 02:12:17;;;;;;;13.88;12.68;;;4.80;99.90;;;;;;5035630;28;20471;-72
2022/01/09 02:14:47;;;;;;;12.57;11.52;;;4.90;99.90;;;;;;5034599;28;20075;-72
2022/01/09 02:17:18;;;;;;;13.90;12.70;;;4.80;99.90;;;;;;5035647;28;20052;-72
2022/01/09 02:19:58;;;;;;;14.20;13.00;;;4.90;99.90;;;;;;5035009;28;20047;-72
2022/01/09 02:22:26;;;;;;;14.40;13.15;;;4.80;99.90;;;;;;5046730;28;20127;-72
2022/01/09 02:24:52;;;;;;;14.77;13.50;;;4.80;99.90;;;;;;5029851;28;20079;-75
2022/01/09 02:27:18;;;;;;;14.25;12.95;;;4.80;99.90;;;;;;5035382;28;20686;-75
2022/01/09 02:29:48;;;;;;;14.43;13.23;;;4.80;99.90;;;;;;5036217;28;20044;-74
2022/01/09 02:32:16;;;;;;;14.35;12.95;;;4.80;99.90;;;;;;5033163;28;20043;-75
2022/01/09 02:34:45;;;;;;;15.35;14.02;;;4.80;99.90;;;;;;5033496;28;20052;-75
2022/01/09 02:37:10;;;;;;;14.77;13.40;;;4.80;99.90;;;;;;5036066;28;20045;-74
2022/01/09 02:39:36;;;;;;;15.65;14.25;;;4.90;99.90;;;;;;5053405;28;20032;-75
2022/01/09 02:42:01;;;;;;;13.52;12.32;;;4.90;99.90;;;;;;5023424;28;20037;-75
2022/01/09 02:44:27;;;;;;;15.40;13.98;;;4.90;99.90;;;;;;5041067;28;20521;-74
2022/01/09 02:47:01;;;;;;;14.68;13.38;;;4.90;99.90;;;;;;5035140;28;20047;-74
2022/01/09 02:49:29;;;;;;;13.48;12.18;;;4.90;99.90;;;;;;5034443;28;20064;-74
2022/01/09 02:51:54;;;;;;;12.50;11.40;;;5.00;99.90;;;;;;5015391;28;20528;-75
2022/01/09 02:57:04;;;;;;;12.20;10.77;;;5.00;99.90;;;;;;5033197;28;20055;-74
2022/01/09 02:59:30;;;;;;;13.25;12.05;;;5.00;99.90;;;;;;5048823;28;20041;-74
2022/01/09 03:01:55;;;;;;;13.40;12.00;;;5.00;99.90;;;;;;5020361;28;20119;-74
2022/01/09 03:04:21;;;;;;;12.77;11.48;;;5.00;99.90;;;;;;5016291;28;20083;-75
2022/01/09 03:06:46;;;;;;;12.63;11.30;;;5.00;99.90;;;;;;5018147;28;20081;-73
2022/01/09 03:09:12;;;;;;;13.23;10.80;;;5.00;99.90;;;;;;5043290;28;20631;-73
2022/01/09 03:11:39;;;;;;;11.80;9.70;;;5.00;99.90;;;;;;5034305;28;20047;-73
2022/01/09 03:14:07;;;;;;;10.80;9.07;;;5.10;99.90;;;;;;5017004;28;20375;-73
2022/01/09 03:16:33;;;;;;;9.45;8.15;;;5.10;99.90;;;;;;5034964;28;20099;-73
2022/01/09 03:18:58;;;;;;;11.27;6.78;;;5.10;99.90;;;;;;5030554;28;20041;-73
2022/01/09 03:21:24;;;;;;;12.10;7.43;;;5.20;99.90;;;;;;5049620;28;20168;-73
2022/01/09 03:23:50;;;;;;;11.50;7.18;;;5.30;99.90;;;;;;5040845;28;20059;-73
2022/01/09 03:26:15;;;;;;;15.85;8.38;;;5.20;99.90;;;;;;5035977;28;20068;-73
2022/01/09 03:28:41;;;;;;;11.85;6.53;;;5.30;99.90;;;;;;5048084;28;20051;-73
2022/01/09 03:31:06;;;;;;;13.30;6.68;;;5.30;99.90;;;;;;5034205;28;20037;-74
2022/01/09 03:33:32;;;;;;;13.55;6.22;;;5.40;99.90;;;;;;5034418;28;20051;-73
2022/01/09 03:35:57;;;;;;;13.82;5.50;;;5.40;99.90;;;;;;5052310;28;20041;-73
2022/01/09 03:38:23;;;;;;;15.63;5.00;;;5.40;99.90;;;;;;5022143;28;20041;-73
2022/01/09 03:40:48;;;;;;;14.38;5.10;;;5.40;99.90;;;;;;5032805;28;20498;-73
2022/01/09 03:43:14;;;;;;;11.45;4.88;;;5.40;99.90;;;;;;5034267;28;20064;-73
2022/01/09 03:45:39;;;;;;;8.85;3.58;;;5.50;99.90;;;;;;5034315;28;20048;-74
2022/01/09 03:48:05;;;;;;;14.27;4.22;;;5.60;99.90;;;;;;5017304;28;20052;-74
2022/01/09 03:50:32;;;;;;;16.27;4.50;;;5.60;99.90;;;;;;5017442;28;20513;-74
2022/01/09 03:52:58;;;;;;;22.80;3.72;;;5.60;99.90;;;;;;5033952;28;20072;-74
2022/01/09 03:55:24;;;;;;;21.45;4.28;;;5.70;99.90;;;;;;5033988;28;20083;-73
2022/01/09 03:57:50;;;;;;;25.00;4.65;;;5.90;99.90;;;;;;5026788;28;20167;-73
2022/01/09 04:00:21;;;;;;;21.25;3.83;;;5.90;99.90;;;;;;5017382;28;20115;-74
2022/01/09 04:02:50;;;;;;;32.55;6.03;;;6.00;99.90;;;;;;5033486;28;20063;-73
2022/01/09 04:05:17;;;;;;;23.45;4.50;;;6.00;99.90;;;;;;5034777;28;20092;-74
2022/01/09 04:07:42;;;;;;;32.10;5.18;;;6.00;99.90;;;;;;5042269;28;20043;-74
2022/01/09 04:10:08;;;;;;;25.27;5.53;;;6.00;99.90;;;;;;5022404;28;20041;-74
2022/01/09 04:12:37;;;;;;;29.73;5.28;;;6.00;99.90;;;;;;5032351;28;20393;-74
2022/01/09 04:15:07;;;;;;;30.75;5.40;;;5.90;99.90;;;;;;5017149;28;20426;-74
2022/01/09 04:17:52;;;;;;;27.65;5.72;;;6.00;99.90;;;;;;5033678;28;20102;-74
2022/01/09 04:20:23;;;;;;;36.47;5.68;;;6.00;99.90;;;;;;5036547;23;20049;-74
2022/01/09 04:22:50;;;;;;;37.03;6.50;;;6.10;99.90;;;;;;5027987;28;20582;-73
2022/01/09 04:25:16;;;;;;;28.65;4.60;;;6.10;99.90;;;;;;5033276;28;20037;-73
2022/01/09 04:27:43;;;;;;;38.63;5.15;;;6.10;99.90;;;;;;5032966;28;20524;-73
2022/01/09 04:30:09;;;;;;;38.55;6.28;;;6.20;99.90;;;;;;5030778;28;20044;-73
2022/01/09 04:32:34;;;;;;;37.55;5.43;;;6.20;99.90;;;;;;5033652;28;20068;-73
2022/01/09 04:35:00;;;;;;;23.88;4.55;;;6.10;99.90;;;;;;5033274;28;20133;-73
2022/01/09 04:37:26;;;;;;;27.52;3.90;;;6.20;99.90;;;;;;5027446;28;20053;-73
2022/01/09 04:39:52;;;;;;;32.03;5.50;;;6.30;99.90;;;;;;5032844;28;20041;-73
2022/01/09 04:42:19;;;;;;;27.00;4.25;;;6.30;99.90;;;;;;5033150;28;20048;-73
2022/01/09 04:44:44;;;;;;;26.23;4.35;;;6.40;99.90;;;;;;5017430;28;20103;-73
2022/01/09 04:47:14;;;;;;;27.13;4.82;;;6.40;99.90;;;;;;5033019;28;20568;-73
2022/01/09 04:49:43;;;;;;;28.55;4.80;;;6.30;99.90;;;;;;5029969;28;20056;-74
2022/01/09 04:52:13;;;;;;;35.75;6.18;;;6.30;99.90;;;;;;5031940;28;20048;-74
2022/01/09 04:54:39;;;;;;;30.60;4.38;;;6.30;99.90;;;;;;5016548;28;20049;-73
2022/01/09 04:57:05;;;;;;;32.92;5.00;;;6.30;99.90;;;;;;5033609;28;20044;-74
2022/01/09 04:59:31;;;;;;;22.77;3.78;;;6.30;99.90;;;;;;5031754;28;20083;-73
2022/01/09 05:01:57;;;;;;;32.33;3.97;;;6.30;99.90;;;;;;5032663;28;20041;-73
2022/01/09 05:04:22;;;;;;;36.55;4.72;;;6.30;99.90;;;;;;5061372;28;20064;-73
2022/01/09 05:06:48;;;;;;;34.38;3.25;;;6.30;99.90;;;;;;5032812;28;20040;-73
2022/01/09 05:09:13;;;;;;;27.23;4.43;;;6.30;99.90;;;;;;5038418;28;20479;-73
2022/01/09 05:11:39;;;;;;;27.10;5.45;;;6.30;99.90;;;;;;5040766;28;20041;-73
2022/01/09 05:14:05;;;;;;;30.98;4.28;;;6.30;99.90;;;;;;5019268;28;20474;-73
2022/01/09 05:16:31;;;;;;;24.83;4.00;;;6.30;99.90;;;;;;5036638;28;20048;-73
2022/01/09 05:19:04;;;;;;;23.70;4.10;;;6.30;99.90;;;;;;5036902;28;20127;-73
2022/01/09 05:21:29;;;;;;;23.35;3.47;;;6.30;99.90;;;;;;5036165;28;20134;-73
2022/01/09 05:23:55;;;;;;;32.78;4.57;;;6.40;99.90;;;;;;5015928;28;20490;-73
2022/01/09 05:26:20;;;;;;;17.73;3.33;;;6.40;99.90;;;;;;5020169;28;20060;-73
2022/01/09 05:28:46;;;;;;;25.75;3.97;;;6.40;99.90;;;;;;5033349;28;20049;-72
2022/01/09 05:31:11;;;;;;;28.60;5.50;;;6.30;99.90;;;;;;5036701;28;20044;-73
2022/01/09 05:33:37;;;;;;;25.70;4.53;;;6.30;99.90;;;;;;5036952;28;20040;-73
2022/01/09 05:36:03;;;;;;;17.15;3.25;;;6.20;99.90;;;;;;5036281;28;20039;-73
2022/01/09 05:38:29;;;;;;;23.15;3.80;;;6.30;99.90;;;;;;5054441;28;20437;-73
2022/01/09 05:40:54;;;;;;;24.65;3.75;;;6.30;99.90;;;;;;5033844;28;20048;-73
2022/01/09 05:43:20;;;;;;;22.25;3.28;;;6.20;99.90;;;;;;5035147;28;20076;-73
2022/01/09 05:45:46;;;;;;;28.13;4.45;;;6.10;99.90;;;;;;5040003;28;20479;-73
2022/01/09 05:48:11;;;;;;;22.92;3.42;;;6.20;99.90;;;;;;5036284;28;20474;-73
2022/01/09 05:50:37;;;;;;;24.73;3.42;;;6.20;99.90;;;;;;5035897;28;20072;-73
2022/01/09 05:53:02;;;;;;;19.42;2.75;;;6.10;99.90;;;;;;5036315;28;20051;-73
2022/01/09 05:55:30;;;;;;;19.17;3.03;;;6.10;99.90;;;;;;5035978;28;20092;-73
2022/01/09 05:57:55;;;;;;;14.15;2.50;;;6.20;99.90;;;;;;5028519;28;20505;-73
2022/01/09 06:00:21;;;;;;;17.88;2.42;;;6.10;99.90;;;;;;5053819;28;20068;-73
2022/01/09 06:02:47;;;;;;;18.08;2.70;;;6.20;99.90;;;;;;5036104;28;20048;-73
2022/01/09 06:05:13;;;;;;;21.35;3.25;;;6.20;99.90;;;;;;5036627;28;20080;-74
2022/01/09 06:07:40;;;;;;;15.50;2.92;;;6.00;99.90;;;;;;5052598;28;20154;-75
2022/01/09 06:10:06;;;;;;;20.35;3.10;;;6.10;99.90;;;;;;5014270;28;20500;-75
2022/01/09 06:12:32;;;;;;;28.80;3.75;;;6.10;99.90;;;;;;5044174;28;20036;-75
2022/01/09 06:14:58;;;;;;;16.08;2.75;;;6.10;99.90;;;;;;5021618;28;20048;-75
2022/01/09 06:17:24;;;;;;;19.65;2.83;;;6.00;99.90;;;;;;5031698;28;20086;-75
2022/01/09 06:19:50;;;;;;;17.65;3.13;;;6.00;99.90;;;;;;5019484;28;20124;-75
2022/01/09 06:22:18;;;;;;;14.95;3.05;;;6.00;99.90;;;;;;5054759;28;20524;-75
2022/01/09 06:24:47;;;;;;;18.75;2.78;;;6.00;99.90;;;;;;5026406;28;20037;-75
2022/01/09 06:27:16;;;;;;;20.20;2.75;;;5.90;99.90;;;;;;5019359;28;20134;-75
2022/01/09 06:29:42;;;;;;;18.90;2.80;;;5.80;99.90;;;;;;5024593;28;20033;-74
2022/01/09 06:32:07;;;;;;;17.33;2.88;;;5.90;99.90;;;;;;5019037;28;20041;-74
2022/01/09 06:34:33;;;;;;;14.95;3.05;;;5.90;99.90;;;;;;5035967;28;20045;-75
2022/01/09 06:36:58;;;;;;;18.70;2.70;;;5.80;99.90;;;;;;5036151;28;20048;-75
2022/01/09 06:39:24;;;;;;;21.15;3.30;;;5.80;99.90;;;;;;5018126;28;20052;-74
2022/01/09 06:41:50;;;;;;;25.23;4.00;;;5.80;99.90;;;;;;5053910;28;20078;-74
2022/01/09 06:44:15;;;;;;;19.48;3.55;;;5.80;99.90;;;;;;5035691;28;20128;-74
2022/01/09 06:46:42;;;;;;;20.73;3.20;;;5.80;99.90;;;;;;5047501;28;20033;-74
2022/01/09 06:49:07;;;;;;;16.42;2.40;;;5.80;99.90;;;;;;5043955;28;20037;-74
2022/01/09 06:51:33;;;;;;;20.17;2.45;;;5.80;99.90;;;;;;5033288;28;20040;-75
2022/01/09 06:53:58;;;;;;;19.80;3.22;;;5.80;99.90;;;;;;5030899;28;20467;-74
2022/01/09 06:56:24;;;;;;;19.42;2.88;;;5.80;99.90;;;;;;5024396;28;20470;-75
2022/01/09 06:58:49;;;;;;;16.30;2.47;;;5.80;99.90;;;;;;5034757;28;20068;-74
2022/01/09 07:01:15;;;;;;;16.77;2.85;;;5.80;99.90;;;;;;5026190;28;20159;-75
2022/01/09 07:03:41;;;;;;;18.70;2.72;;;5.80;99.90;;;;;;5007272;28;20509;-74
2022/01/09 07:06:06;;;;;;;15.90;3.25;;;5.80;99.90;;;;;;5042409;28;20041;-75
2022/01/09 07:08:33;;;;;;;17.65;3.55;;;5.80;99.90;;;;;;5030941;28;20037;-74
2022/01/09 07:11:03;;;;;;;20.65;2.95;;;5.70;99.90;;;;;;5031867;28;20102;-75
2022/01/09 07:13:29;;;;;;;14.35;2.38;;;5.70;99.90;;;;;;5031348;28;20045;-75
2022/01/09 07:15:55;;;;;;;15.13;2.38;;;5.70;99.90;;;;;;5033634;28;20033;-75
2022/01/09 07:18:21;;;;;;;16.13;2.80;;;5.70;99.90;;;;;;5033911;28;20118;-74
2022/01/09 07:20:46;;;;;;;17.85;2.78;;;5.80;99.90;;;;;;5027216;28;20131;-75
2022/01/09 07:23:12;;;;;;;16.55;2.92;;;5.80;99.90;;;;;;5030760;28;20041;-74
2022/01/09 07:25:37;;;;;;;15.57;2.67;;;5.80;99.90;;;;;;5031227;28;20041;-75
2022/01/09 07:28:03;;;;;;;12.60;2.33;;;5.70;99.90;;;;;;5032766;28;20534;-75
2022/01/09 07:30:30;;;;;;;16.75;2.85;;;5.70;99.90;;;;;;5031568;28;20037;-75
2022/01/09 07:32:56;;;;;;;16.50;2.80;;;5.70;99.90;;;;;;5016378;28;20045;-75
2022/01/09 07:35:22;;;;;;;10.68;2.47;;;5.70;99.90;;;;;;5031788;28;20045;-75
2022/01/09 07:37:48;;;;;;;16.13;2.08;;;5.70;99.90;;;;;;5025223;28;20083;-74
2022/01/09 07:40:14;;;;;;;16.75;2.97;;;5.70;99.90;;;;;;5048765;28;20398;-75
2022/01/09 07:42:40;;;;;;;13.65;2.40;;;5.80;99.90;;;;;;5016522;28;20040;-74
2022/01/09 07:45:09;;;;;;;14.48;2.10;;;5.70;99.90;;;;;;5051463;28;20045;-75
2022/01/09 07:47:35;;;;;;;15.45;2.05;;;5.70;99.90;;;;;;5015957;28;20493;-74
2022/01/09 07:50:03;;;;;;;14.00;2.45;;;5.60;99.90;;;;;;5024712;28;20072;-74
2022/01/09 07:52:28;;;;;;;17.67;2.05;;;5.60;99.90;;;;;;5004104;28;20083;-74
2022/01/09 07:54:54;;;;;;;13.80;2.22;;;5.70;99.90;;;;;;5032545;28;21775;-75
2022/01/09 07:57:20;;;;;;;15.75;2.33;;;5.70;99.90;;;;;;5016347;28;20075;-74
2022/01/09 07:59:45;;;;;;;12.05;2.20;;;5.60;99.90;;;;;;5031198;28;20041;-76
2022/01/09 08:02:11;;;;;;;11.43;2.10;;;5.70;99.90;;;;;;5044659;28;20124;-74
2022/01/09 08:04:37;;;;;;;9.88;2.20;;;5.60;99.90;;;;;;5022293;28;20044;-74
2022/01/09 08:07:03;;;;;;;11.75;1.98;;;5.70;99.90;;;;;;5027540;28;20045;-74
2022/01/09 08:09:28;;;;;;;13.90;2.05;;;5.60;99.90;;;;;;5031550;28;20513;-74
2022/01/09 08:11:55;;;;;;;15.05;1.65;;;5.60;99.90;;;;;;5031450;28;20061;-74
2022/01/09 08:14:20;;;;;;;12.00;1.77;;;5.60;99.90;;;;;;5014747;28;20154;-74
2022/01/09 08:16:46;;;;;;;12.98;2.17;;;5.60;99.90;;;;;;5033155;28;20545;-74
2022/01/09 08:19:11;;;;;;;12.00;2.38;;;5.50;99.90;;;;;;5021914;28;20044;-74
2022/01/09 08:21:37;;;;;;;11.70;2.83;;;5.50;99.90;;;;;;5020287;28;20097;-74
2022/01/09 08:24:03;;;;;;;8.30;1.75;;;5.50;99.90;;;;;;5028861;28;20060;-74
2022/01/09 08:26:28;;;;;;;10.45;1.42;;;5.60;99.90;;;;;;5030701;28;20066;-74
2022/01/09 08:28:54;;;;;;;14.82;1.75;;;5.60;99.90;;;;;;5029901;28;20061;-74
2022/01/09 08:31:20;;;;;;;13.18;2.17;;;5.60;99.90;;;;;;5018515;28;20048;-74
2022/01/09 08:33:46;;;;;;;8.60;1.83;;;5.60;99.90;;;;;;5032773;28;20387;-74
2022/01/09 08:36:13;;;;;;;10.77;1.60;;;5.60;99.90;;;;;;5042653;28;20057;-74
2022/01/09 08:38:39;;;;;;;10.02;1.60;;;5.60;99.90;;;;;;5026519;28;20063;-75
2022/01/09 08:41:04;;;;;;;11.18;1.90;;;5.60;99.90;;;;;;5005710;28;20533;-74
2022/01/09 08:43:31;;;;;;;8.23;1.83;;;5.60;99.90;;;;;;5030305;28;20044;-74
2022/01/09 08:45:57;;;;;;;7.50;1.70;;;5.60;99.90;;;;;;5013902;28;20029;-74
2022/01/09 08:48:23;;;;;;;7.57;1.88;;;5.50;99.90;;;;;;5031497;28;20543;-74
2022/01/09 08:50:48;;;;;;;10.90;1.92;;;5.50;99.90;;;;;;5033051;28;20033;-75
2022/01/09 08:53:15;;;;;;;8.70;1.48;;;5.50;99.90;;;;;;5031495;28;20053;-74
2022/01/09 08:55:41;;;;;;;11.45;1.95;;;5.50;99.90;;;;;;5022491;28;20451;-74
2022/01/09 08:58:06;;;;;;;9.35;1.58;;;5.60;99.90;;;;;;5024237;28;20060;-74
2022/01/09 09:00:32;;;;;;;6.57;1.50;;;5.50;99.90;;;;;;5028102;28;20437;-75
2022/01/09 09:02:57;;;;;;;8.70;2.00;;;5.50;99.90;;;;;;5048297;28;20120;-75
2022/01/09 09:05:23;;;;;;;8.02;1.55;;;5.50;99.90;;;;;;5021360;28;20110;-75
2022/01/09 09:07:49;;;;;;;12.05;2.13;;;5.60;99.90;;;;;;5032811;28;20099;-75
2022/01/09 09:10:14;;;;;;;10.93;2.30;;;5.60;99.90;;;;;;5031612;28;20065;-74
2022/01/09 09:12:40;;;;;;;12.38;1.85;;;5.60;99.90;;;;;;5032404;28;20116;-74
2022/01/09 09:15:06;;;;;;;9.45;1.80;;;5.70;99.90;;;;;;5024972;28;20033;-74
2022/01/09 09:17:33;;;;;;;11.82;1.90;;;5.60;99.90;;;;;;5028304;28;20079;-74
2022/01/09 09:19:58;;;;;;;14.52;2.50;;;5.70;99.90;;;;;;5032136;28;20056;-74
2022/01/09 09:22:24;;;;;;;11.20;1.92;;;5.60;99.90;;;;;;5012628;28;20123;-74
2022/01/09 09:24:50;;;;;;;13.25;2.40;;;5.70;99.90;;;;;;5010672;28;20044;-74
2022/01/09 09:27:18;;;;;;;9.20;2.20;;;5.70;99.90;;;;;;5009664;28;20048;-75
2022/01/09 09:29:44;;;;;;;13.77;1.90;;;5.70;99.90;;;;;;5032759;28;20502;-74
2022/01/09 09:32:09;;;;;;;9.57;2.05;;;5.70;99.90;;;;;;5030722;28;20068;-75
2022/01/09 09:34:36;;;;;;;10.13;2.03;;;5.70;99.90;;;;;;5029320;28;20037;-75
2022/01/09 09:37:02;;;;;;;11.00;1.90;;;5.70;99.90;;;;;;5032167;28;20500;-75
2022/01/09 09:39:28;;;;;;;12.82;2.50;;;5.80;99.90;;;;;;5032139;28;20135;-76
2022/01/09 09:41:53;;;;;;;9.75;1.85;;;5.90;99.90;;;;;;5033644;28;20621;-73
2022/01/09 09:44:19;;;;;;;13.60;2.80;;;5.90;99.90;;;;;;5013980;28;20129;-76
2022/01/09 09:46:49;;;;;;;13.57;2.88;;;5.90;99.90;;;;;;5042709;28;20033;-75
2022/01/09 09:49:15;;;;;;;14.63;2.35;;;6.00;99.90;;;;;;5045245;28;20041;-75
2022/01/09 09:51:41;;;;;;;10.50;1.67;;;6.00;99.90;;;;;;5032023;28;21781;-76
2022/01/09 09:54:07;;;;;;;10.70;1.63;;;5.90;99.90;;;;;;5027850;28;20030;-76
2022/01/09 09:56:32;;;;;;;11.30;1.75;;;5.90;99.90;;;;;;5029663;28;20776;-76
2022/01/09 09:58:59;;;;;;;9.65;2.05;;;6.00;99.90;;;;;;5016169;28;20041;-76
2022/01/09 10:01:31;;;;;;;10.95;1.48;;;5.90;99.90;;;;;;5034610;28;20049;-76
2022/01/09 10:04:06;;;;;;;10.90;2.30;;;6.00;99.90;;;;;;5028971;28;20083;-76
2022/01/09 10:06:43;;;;;;;11.30;2.10;;;5.90;99.90;;;;;;5024738;28;20029;-76
2022/01/09 10:09:11;;;;;;;10.60;1.63;;;5.90;99.90;;;;;;5043438;28;20048;-76
2022/01/09 10:11:51;;;;;;;7.82;1.30;;;6.00;99.90;;;;;;5022782;28;20033;-76
2022/01/09 10:14:26;;;;;;;9.20;1.55;;;6.00;99.90;;;;;;5026203;28;20087;-76
2022/01/09 10:17:19;;;;;;;8.35;1.58;;;5.90;99.90;;;;;;5020150;28;20036;-76
2022/01/09 10:20:21;;;;;;;9.50;1.60;;;6.00;99.90;;;;;;5026970;28;20123;-76
2022/01/09 10:22:53;;;;;;;10.77;1.50;;;6.00;99.90;;;;;;5022363;28;20045;-76
2022/01/09 10:25:38;;;;;;;9.83;1.87;;;5.90;99.90;;;;;;5006646;28;20032;-76
2022/01/09 10:28:12;;;;;;;10.20;2.05;;;6.00;99.90;;;;;;5048698;28;20287;-76
2022/01/09 10:30:41;;;;;;;7.32;1.40;;;6.00;99.90;;;;;;5023681;28;20041;-76
2022/01/09 10:33:09;;;;;;;8.02;1.45;;;6.00;99.90;;;;;;5050690;28;20374;-76
2022/01/09 10:35:36;;;;;;;7.18;1.65;;;6.00;99.90;;;;;;5036276;23;20437;-76
2022/01/09 10:38:19;;;;;;;6.25;1.60;;;6.00;99.90;;;;;;5055058;28;20076;-76
2022/01/09 10:40:56;;;;;;;7.25;1.42;;;6.00;99.90;;;;;;5049458;28;20032;-75
2022/01/09 10:43:23;;;;;;;7.68;1.67;;;6.00;99.90;;;;;;5046667;28;20171;-76
2022/01/09 10:45:58;;;;;;;9.63;1.50;;;6.00;99.90;;;;;;5044149;28;20041;-76
2022/01/09 10:48:25;;;;;;;6.55;1.30;;;5.90;99.90;;;;;;5051771;28;20071;-75
2022/01/09 10:50:52;;;;;;;13.00;1.52;;;6.00;99.90;;;;;;5056298;28;20056;-75
2022/01/09 10:53:19;;;;;;;9.13;1.50;;;6.00;99.90;;;;;;5029219;28;20033;-76
2022/01/09 10:56:04;;;;;;;8.43;1.83;;;6.00;99.90;;;;;;5054477;28;20036;-75
2022/01/09 10:58:34;;;;;;;7.03;1.40;;;6.00;99.90;;;;;;5052940;28;20478;-76
2022/01/09 11:01:11;;;;;;;6.75;1.60;;;6.00;99.90;;;;;;5051822;28;20123;-76
2022/01/09 11:03:39;;;;;;;4.97;1.10;;;6.00;99.90;;;;;;5039671;28;20067;-75
2022/01/09 11:06:06;;;;;;;4.30;1.10;;;6.10;99.90;;;;;;5049034;28;20094;-76
2022/01/09 11:08:34;;;;;;;11.55;1.40;;;6.00;99.90;;;;;;5052010;28;20047;-76
2022/01/09 11:11:02;;;;;;;5.18;1.10;;;6.10;99.90;;;;;;5039984;28;20050;-76
2022/01/09 11:13:28;;;;;;;7.30;1.60;;;6.10;99.90;;;;;;5044175;28;20119;-76
2022/01/09 11:18:41;;;;;;;9.48;1.67;;;6.10;99.90;;;;;;5050696;28;20044;-75
2022/01/09 11:21:08;;;;;;;5.13;1.38;;;6.20;99.90;;;;;;5032421;28;20049;-76
2022/01/09 11:23:43;;;;;;;8.05;1.40;;;6.20;99.90;;;;;;5030240;28;20081;-76
2022/01/09 11:26:11;;;;;;;7.93;1.50;;;6.30;99.90;;;;;;5049421;28;20040;-76
2022/01/09 11:28:38;;;;;;;9.27;2.03;;;6.40;99.90;;;;;;5045544;28;20033;-76
2022/01/09 11:31:23;;;;;;;7.22;1.40;;;6.40;99.90;;;;;;5035949;28;20451;-76
2022/01/09 11:34:19;;;;;;;9.98;1.48;;;6.40;99.90;;;;;;5062935;28;20394;-76
2022/01/09 11:36:44;;;;;;;8.07;1.80;;;6.60;99.90;;;;;;5019371;28;20404;-75
2022/01/09 11:39:26;;;;;;;8.68;1.67;;;6.60;99.90;;;;;;5036798;28;20056;-75
2022/01/09 11:42:24;;;;;;;8.75;1.95;;;6.60;99.90;;;;;;5052571;28;20040;-76
2022/01/09 11:44:52;;;;;;;10.07;1.90;;;6.70;99.90;;;;;;5030504;28;20045;-74
2022/01/09 11:47:19;;;;;;;7.75;1.70;;;6.90;99.90;;;;;;5030648;28;20135;-76
2022/01/09 11:49:53;;;;;;;9.20;1.73;;;7.00;99.90;;;;;;5042439;28;20076;-75
2022/01/09 11:52:20;;;;;;;9.02;1.88;;;7.00;99.90;;;;;;5051425;28;20135;-75
2022/01/09 11:54:52;;;;;;;9.77;1.73;;;7.10;99.90;;;;;;5036583;28;20122;-76
2022/01/09 11:57:46;;;;;;;8.68;1.73;;;7.20;99.90;;;;;;5032144;28;20054;-76
2022/01/09 12:00:39;;;;;;;9.10;1.73;;;7.20;99.90;;;;;;5055983;28;20041;-75
2022/01/09 12:03:27;;;;;;;6.45;1.40;;;7.20;99.90;;;;;;5052981;28;20040;-75
2022/01/09 12:06:01;;;;;;;9.07;1.60;;;7.30;99.90;;;;;;5069201;28;20065;-75
2022/01/09 12:08:27;;;;;;;11.60;2.05;;;7.20;99.90;;;;;;5067479;28;20032;-75
2022/01/09 12:10:53;;;;;;;12.15;1.88;;;7.30;99.90;;;;;;5052911;28;20404;-75
2022/01/09 12:13:40;;;;;;;9.05;1.48;;;7.30;99.90;;;;;;5052410;28;20028;-76
2022/01/09 12:16:07;;;;;;;6.85;1.42;;;7.40;99.90;;;;;;5035120;28;20040;-75
2022/01/09 12:18:45;;;;;;;8.85;1.75;;;7.50;99.90;;;;;;5050093;28;20049;-76
2022/01/09 12:21:46;;;;;;;10.15;1.30;;;7.40;99.90;;;;;;5052180;28;20119;-75
2022/01/09 12:24:40;;;;;;;8.43;1.90;;;7.50;99.90;;;;;;5062251;28;20044;-75
2022/01/09 12:27:35;;;;;;;8.38;1.58;;;7.50;99.90;;;;;;5026533;28;20400;-76
2022/01/09 12:30:01;;;;;;;6.72;1.73;;;7.50;99.90;;;;;;5048645;28;20064;-75
2022/01/09 12:32:41;;;;;;;9.73;1.58;;;7.50;99.90;;;;;;5052022;28;20052;-76
2022/01/09 12:35:25;;;;;;;8.90;1.80;;;7.50;99.90;;;;;;5033937;28;20056;-75
2022/01/09 12:38:00;;;;;;;9.30;2.17;;;7.50;99.90;;;;;;5045278;28;20404;-75
2022/01/09 12:40:29;;;;;;;8.05;1.45;;;7.40;99.90;;;;;;5027413;28;20082;-75
2022/01/09 12:42:56;;;;;;;8.68;1.67;;;7.40;99.90;;;;;;5041627;28;20351;-76
2022/01/09 12:45:31;;;;;;;7.80;1.60;;;7.40;99.90;;;;;;5042488;28;20042;-76
2022/01/09 12:47:58;;;;;;;10.02;1.70;;;7.40;99.90;;;;;;5037625;28;20045;-76
2022/01/09 12:50:32;;;;;;;5.97;1.60;;;7.30;99.90;;;;;;5026441;28;20047;-76
2022/01/09 12:53:26;;;;;;;9.75;1.40;;;7.30;99.90;;;;;;5029352;28;20041;-76
2022/01/09 12:56:04;;;;;;;8.57;1.42;;;7.40;99.90;;;;;;5044805;28;20123;-76
2022/01/09 12:58:32;;;;;;;7.32;1.52;;;7.30;99.90;;;;;;5062559;28;20051;-75